sensor_id;sensor_type;location;lat;lon;timestamp;P1;durP1;ratioP1;P2;durP2;ratioP2
24801;SDS011;12898;50.520;12.152;2023-11-19T00:00:45;2.77;;;2.27;;
24801;SDS011;12898;50.520;12.152;2023-11-19T00:03:10;4.87;;;2.67;;
24801;SDS011;12898;50.520;12.152;2023-11-19T00:05:38;3.37;;;2.43;;
24801;SDS011;12898;50.520;12.152;2023-11-19T00:08:04;4.67;;;2.63;;
24801;SDS011;12898;50.520;12.152;2023-11-19T00:10:31;3.40;;;2.37;;
24801;SDS011;12898;50.520;12.152;2023-11-19T00:12:57;4.37;;;2.70;;
24801;SDS011;12898;50.520;12.152;2023-11-19T00:15:22;5.23;;;2.80;;
24801;SDS011;12898;50.520;12.152;2023-11-19T00:17:49;4.30;;;2.73;;
24801;SDS011;12898;50.520;12.152;2023-11-19T00:20:15;4.27;;;2.80;;
24801;SDS011;12898;50.520;12.152;2023-11-19T00:22:43;4.37;;;2.80;;
24801;SDS011;12898;50.520;12.152;2023-11-19T00:25:09;4.83;;;2.80;;
24801;SDS011;12898;50.520;12.152;2023-11-19T00:27:35;4.47;;;2.90;;
24801;SDS011;12898;50.520;12.152;2023-11-19T00:30:02;5.37;;;3.10;;
24801;SDS011;12898;50.520;12.152;2023-11-19T00:32:33;4.83;;;2.97;;
24801;SDS011;12898;50.520;12.152;2023-11-19T00:34:59;4.23;;;2.90;;
24801;SDS011;12898;50.520;12.152;2023-11-19T00:37:25;5.53;;;3.37;;
24801;SDS011;12898;50.520;12.152;2023-11-19T00:39:51;4.13;;;2.70;;
24801;SDS011;12898;50.520;12.152;2023-11-19T00:42:17;5.53;;;3.20;;
24801;SDS011;12898;50.520;12.152;2023-11-19T00:44:43;5.87;;;3.40;;
24801;SDS011;12898;50.520;12.152;2023-11-19T00:47:09;4.57;;;2.80;;
24801;SDS011;12898;50.520;12.152;2023-11-19T00:49:34;4.10;;;2.73;;
24801;SDS011;12898;50.520;12.152;2023-11-19T00:52:00;5.30;;;3.00;;
24801;SDS011;12898;50.520;12.152;2023-11-19T00:54:27;5.20;;;3.23;;
24801;SDS011;12898;50.520;12.152;2023-11-19T00:56:53;5.20;;;3.30;;
24801;SDS011;12898;50.520;12.152;2023-11-19T00:59:19;4.57;;;3.07;;
24801;SDS011;12898;50.520;12.152;2023-11-19T01:01:45;5.87;;;3.23;;
24801;SDS011;12898;50.520;12.152;2023-11-19T01:04:13;4.93;;;3.20;;
24801;SDS011;12898;50.520;12.152;2023-11-19T01:06:39;6.07;;;3.47;;
24801;SDS011;12898;50.520;12.152;2023-11-19T01:09:07;5.93;;;3.57;;
24801;SDS011;12898;50.520;12.152;2023-11-19T01:11:33;6.50;;;3.60;;
24801;SDS011;12898;50.520;12.152;2023-11-19T01:14:00;5.27;;;3.30;;
24801;SDS011;12898;50.520;12.152;2023-11-19T01:16:25;6.50;;;3.70;;
24801;SDS011;12898;50.520;12.152;2023-11-19T01:18:51;5.00;;;3.40;;
24801;SDS011;12898;50.520;12.152;2023-11-19T01:21:17;4.63;;;3.07;;
24801;SDS011;12898;50.520;12.152;2023-11-19T01:23:43;6.43;;;3.50;;
24801;SDS011;12898;50.520;12.152;2023-11-19T01:26:10;5.77;;;3.40;;
24801;SDS011;12898;50.520;12.152;2023-11-19T01:28:37;5.20;;;3.33;;
24801;SDS011;12898;50.520;12.152;2023-11-19T01:31:09;4.17;;;3.00;;
24801;SDS011;12898;50.520;12.152;2023-11-19T01:33:36;4.97;;;3.30;;
24801;SDS011;12898;50.520;12.152;2023-11-19T01:36:02;5.23;;;3.47;;
24801;SDS011;12898;50.520;12.152;2023-11-19T01:38:29;6.53;;;4.00;;
24801;SDS011;12898;50.520;12.152;2023-11-19T01:40:59;5.67;;;3.70;;
24801;SDS011;12898;50.520;12.152;2023-11-19T01:43:34;5.43;;;3.30;;
24801;SDS011;12898;50.520;12.152;2023-11-19T01:46:02;5.20;;;3.30;;
24801;SDS011;12898;50.520;12.152;2023-11-19T01:48:30;5.13;;;3.40;;
24801;SDS011;12898;50.520;12.152;2023-11-19T01:50:58;6.93;;;3.80;;
24801;SDS011;12898;50.520;12.152;2023-11-19T01:53:24;5.93;;;3.70;;
24801;SDS011;12898;50.520;12.152;2023-11-19T01:55:50;7.40;;;3.80;;
24801;SDS011;12898;50.520;12.152;2023-11-19T01:58:17;5.83;;;3.73;;
24801;SDS011;12898;50.520;12.152;2023-11-19T02:00:44;6.20;;;3.67;;
24801;SDS011;12898;50.520;12.152;2023-11-19T02:03:10;5.63;;;3.37;;
24801;SDS011;12898;50.520;12.152;2023-11-19T02:05:37;5.77;;;3.47;;
24801;SDS011;12898;50.520;12.152;2023-11-19T02:08:04;7.60;;;3.67;;
24801;SDS011;12898;50.520;12.152;2023-11-19T02:10:30;5.17;;;3.27;;
24801;SDS011;12898;50.520;12.152;2023-11-19T02:12:57;5.30;;;3.40;;
24801;SDS011;12898;50.520;12.152;2023-11-19T02:15:24;6.13;;;3.57;;
24801;SDS011;12898;50.520;12.152;2023-11-19T02:17:50;6.63;;;3.40;;
24801;SDS011;12898;50.520;12.152;2023-11-19T02:20:16;4.70;;;2.87;;
24801;SDS011;12898;50.520;12.152;2023-11-19T02:22:45;4.73;;;3.00;;
24801;SDS011;12898;50.520;12.152;2023-11-19T02:25:29;4.60;;;3.13;;
24801;SDS011;12898;50.520;12.152;2023-11-19T02:28:00;5.07;;;3.20;;
24801;SDS011;12898;50.520;12.152;2023-11-19T02:30:27;5.07;;;3.30;;
24801;SDS011;12898;50.520;12.152;2023-11-19T02:32:54;5.67;;;3.10;;
24801;SDS011;12898;50.520;12.152;2023-11-19T02:35:26;5.40;;;3.00;;
24801;SDS011;12898;50.520;12.152;2023-11-19T02:37:52;4.90;;;3.10;;
24801;SDS011;12898;50.520;12.152;2023-11-19T02:40:19;3.80;;;2.67;;
24801;SDS011;12898;50.520;12.152;2023-11-19T02:42:47;4.73;;;3.20;;
24801;SDS011;12898;50.520;12.152;2023-11-19T02:45:13;4.60;;;2.93;;
24801;SDS011;12898;50.520;12.152;2023-11-19T02:47:40;3.47;;;2.57;;
24801;SDS011;12898;50.520;12.152;2023-11-19T02:50:07;4.47;;;2.63;;
24801;SDS011;12898;50.520;12.152;2023-11-19T02:52:39;4.10;;;2.60;;
24801;SDS011;12898;50.520;12.152;2023-11-19T02:55:11;4.33;;;2.60;;
24801;SDS011;12898;50.520;12.152;2023-11-19T02:57:40;3.77;;;2.53;;
24801;SDS011;12898;50.520;12.152;2023-11-19T03:00:15;3.70;;;2.43;;
24801;SDS011;12898;50.520;12.152;2023-11-19T03:02:42;4.37;;;2.53;;
24801;SDS011;12898;50.520;12.152;2023-11-19T03:05:11;3.73;;;2.37;;
24801;SDS011;12898;50.520;12.152;2023-11-19T03:07:44;3.80;;;2.63;;
24801;SDS011;12898;50.520;12.152;2023-11-19T03:10:10;3.20;;;2.57;;
24801;SDS011;12898;50.520;12.152;2023-11-19T03:12:40;4.07;;;2.50;;
24801;SDS011;12898;50.520;12.152;2023-11-19T03:15:07;4.47;;;2.57;;
24801;SDS011;12898;50.520;12.152;2023-11-19T03:17:35;3.13;;;2.37;;
24801;SDS011;12898;50.520;12.152;2023-11-19T03:20:05;4.33;;;2.43;;
24801;SDS011;12898;50.520;12.152;2023-11-19T03:22:34;3.00;;;2.40;;
24801;SDS011;12898;50.520;12.152;2023-11-19T03:25:02;3.13;;;2.37;;
24801;SDS011;12898;50.520;12.152;2023-11-19T03:27:29;2.07;;;1.80;;
24801;SDS011;12898;50.520;12.152;2023-11-19T03:29:54;2.67;;;2.00;;
24801;SDS011;12898;50.520;12.152;2023-11-19T03:32:20;2.27;;;1.70;;
24801;SDS011;12898;50.520;12.152;2023-11-19T03:34:46;2.20;;;1.60;;
24801;SDS011;12898;50.520;12.152;2023-11-19T03:37:12;1.97;;;1.77;;
24801;SDS011;12898;50.520;12.152;2023-11-19T03:39:41;1.80;;;1.50;;
24801;SDS011;12898;50.520;12.152;2023-11-19T03:42:07;2.53;;;1.67;;
24801;SDS011;12898;50.520;12.152;2023-11-19T03:44:33;2.33;;;1.70;;
24801;SDS011;12898;50.520;12.152;2023-11-19T03:46:58;2.50;;;1.80;;
24801;SDS011;12898;50.520;12.152;2023-11-19T03:49:24;2.70;;;1.83;;
24801;SDS011;12898;50.520;12.152;2023-11-19T03:51:50;3.10;;;1.60;;
24801;SDS011;12898;50.520;12.152;2023-11-19T03:54:15;2.47;;;1.80;;
24801;SDS011;12898;50.520;12.152;2023-11-19T03:56:41;1.90;;;1.47;;
24801;SDS011;12898;50.520;12.152;2023-11-19T03:59:07;2.17;;;1.50;;
24801;SDS011;12898;50.520;12.152;2023-11-19T04:01:34;1.77;;;1.47;;
24801;SDS011;12898;50.520;12.152;2023-11-19T04:04:02;2.47;;;1.77;;
24801;SDS011;12898;50.520;12.152;2023-11-19T04:06:28;2.20;;;1.57;;
24801;SDS011;12898;50.520;12.152;2023-11-19T04:08:54;1.80;;;1.50;;
24801;SDS011;12898;50.520;12.152;2023-11-19T04:11:19;2.50;;;1.50;;
24801;SDS011;12898;50.520;12.152;2023-11-19T04:13:45;2.73;;;1.40;;
24801;SDS011;12898;50.520;12.152;2023-11-19T04:16:11;1.40;;;1.30;;
24801;SDS011;12898;50.520;12.152;2023-11-19T04:18:36;1.43;;;1.33;;
24801;SDS011;12898;50.520;12.152;2023-11-19T04:21:05;1.40;;;1.30;;
24801;SDS011;12898;50.520;12.152;2023-11-19T04:23:32;1.87;;;1.57;;
24801;SDS011;12898;50.520;12.152;2023-11-19T04:25:57;1.53;;;1.30;;
24801;SDS011;12898;50.520;12.152;2023-11-19T04:28:23;1.30;;;1.20;;
24801;SDS011;12898;50.520;12.152;2023-11-19T04:30:52;1.67;;;1.03;;
24801;SDS011;12898;50.520;12.152;2023-11-19T04:33:17;1.20;;;1.10;;
24801;SDS011;12898;50.520;12.152;2023-11-19T04:35:43;1.60;;;1.10;;
24801;SDS011;12898;50.520;12.152;2023-11-19T04:38:09;1.80;;;1.33;;
24801;SDS011;12898;50.520;12.152;2023-11-19T04:40:35;1.40;;;1.30;;
24801;SDS011;12898;50.520;12.152;2023-11-19T04:43:01;1.60;;;1.23;;
24801;SDS011;12898;50.520;12.152;2023-11-19T04:45:26;1.30;;;1.20;;
24801;SDS011;12898;50.520;12.152;2023-11-19T04:47:52;1.40;;;1.10;;
24801;SDS011;12898;50.520;12.152;2023-11-19T04:50:18;2.17;;;1.30;;
24801;SDS011;12898;50.520;12.152;2023-11-19T04:52:44;0.97;;;0.90;;
24801;SDS011;12898;50.520;12.152;2023-11-19T04:55:10;2.13;;;1.07;;
24801;SDS011;12898;50.520;12.152;2023-11-19T04:57:37;1.30;;;1.17;;
24801;SDS011;12898;50.520;12.152;2023-11-19T05:00:04;1.43;;;1.13;;
24801;SDS011;12898;50.520;12.152;2023-11-19T05:02:30;1.30;;;1.20;;
24801;SDS011;12898;50.520;12.152;2023-11-19T05:04:56;1.20;;;1.10;;
24801;SDS011;12898;50.520;12.152;2023-11-19T05:07:22;1.17;;;1.07;;
24801;SDS011;12898;50.520;12.152;2023-11-19T05:09:48;1.60;;;1.20;;
24801;SDS011;12898;50.520;12.152;2023-11-19T05:12:13;1.57;;;1.20;;
24801;SDS011;12898;50.520;12.152;2023-11-19T05:14:39;1.87;;;1.17;;
24801;SDS011;12898;50.520;12.152;2023-11-19T05:17:05;2.67;;;1.03;;
24801;SDS011;12898;50.520;12.152;2023-11-19T05:19:30;1.23;;;1.00;;
24801;SDS011;12898;50.520;12.152;2023-11-19T05:21:56;1.60;;;1.20;;
24801;SDS011;12898;50.520;12.152;2023-11-19T05:24:22;1.40;;;1.13;;
24801;SDS011;12898;50.520;12.152;2023-11-19T05:26:48;3.23;;;1.43;;
24801;SDS011;12898;50.520;12.152;2023-11-19T05:29:15;1.10;;;0.97;;
24801;SDS011;12898;50.520;12.152;2023-11-19T05:31:41;1.30;;;1.10;;
24801;SDS011;12898;50.520;12.152;2023-11-19T05:34:08;1.80;;;0.90;;
24801;SDS011;12898;50.520;12.152;2023-11-19T05:36:33;1.83;;;0.77;;
24801;SDS011;12898;50.520;12.152;2023-11-19T05:38:59;2.30;;;0.97;;
24801;SDS011;12898;50.520;12.152;2023-11-19T05:41:25;1.93;;;1.20;;
24801;SDS011;12898;50.520;12.152;2023-11-19T05:43:50;4.40;;;1.00;;
24801;SDS011;12898;50.520;12.152;2023-11-19T05:46:16;1.50;;;1.10;;
24801;SDS011;12898;50.520;12.152;2023-11-19T05:48:42;1.50;;;1.10;;
24801;SDS011;12898;50.520;12.152;2023-11-19T05:51:08;1.27;;;0.87;;
24801;SDS011;12898;50.520;12.152;2023-11-19T05:53:34;0.70;;;0.70;;
24801;SDS011;12898;50.520;12.152;2023-11-19T05:55:59;2.10;;;1.03;;
24801;SDS011;12898;50.520;12.152;2023-11-19T05:58:29;2.30;;;1.40;;
24801;SDS011;12898;50.520;12.152;2023-11-19T06:00:55;1.47;;;0.90;;
24801;SDS011;12898;50.520;12.152;2023-11-19T06:03:21;0.73;;;0.73;;
24801;SDS011;12898;50.520;12.152;2023-11-19T06:05:47;1.43;;;0.70;;
24801;SDS011;12898;50.520;12.152;2023-11-19T06:08:14;0.60;;;0.60;;
24801;SDS011;12898;50.520;12.152;2023-11-19T06:10:40;0.83;;;0.70;;
24801;SDS011;12898;50.520;12.152;2023-11-19T06:13:07;0.90;;;0.80;;
24801;SDS011;12898;50.520;12.152;2023-11-19T06:15:35;1.33;;;0.77;;
24801;SDS011;12898;50.520;12.152;2023-11-19T06:18:01;1.93;;;0.97;;
24801;SDS011;12898;50.520;12.152;2023-11-19T06:20:32;1.00;;;0.90;;
24801;SDS011;12898;50.520;12.152;2023-11-19T06:22:58;1.13;;;0.80;;
24801;SDS011;12898;50.520;12.152;2023-11-19T06:25:25;0.70;;;0.70;;
24801;SDS011;12898;50.520;12.152;2023-11-19T06:27:51;0.70;;;0.70;;
24801;SDS011;12898;50.520;12.152;2023-11-19T06:30:18;1.93;;;0.80;;
24801;SDS011;12898;50.520;12.152;2023-11-19T06:32:44;0.87;;;0.70;;
24801;SDS011;12898;50.520;12.152;2023-11-19T06:35:10;1.67;;;0.83;;
24801;SDS011;12898;50.520;12.152;2023-11-19T06:37:38;1.43;;;0.80;;
24801;SDS011;12898;50.520;12.152;2023-11-19T06:40:05;1.40;;;1.30;;
24801;SDS011;12898;50.520;12.152;2023-11-19T06:42:32;1.17;;;1.00;;
24801;SDS011;12898;50.520;12.152;2023-11-19T06:44:58;2.87;;;1.17;;
24801;SDS011;12898;50.520;12.152;2023-11-19T06:47:26;2.10;;;1.10;;
24801;SDS011;12898;50.520;12.152;2023-11-19T06:49:53;2.13;;;1.10;;
24801;SDS011;12898;50.520;12.152;2023-11-19T06:52:19;1.13;;;1.02;;
24801;SDS011;12898;50.520;12.152;2023-11-19T06:54:45;2.15;;;1.10;;
24801;SDS011;12898;50.520;12.152;2023-11-19T06:57:11;3.47;;;1.53;;
24801;SDS011;12898;50.520;12.152;2023-11-19T06:59:37;1.60;;;1.00;;
24801;SDS011;12898;50.520;12.152;2023-11-19T07:02:03;2.20;;;1.15;;
24801;SDS011;12898;50.520;12.152;2023-11-19T07:04:30;2.05;;;1.00;;
24801;SDS011;12898;50.520;12.152;2023-11-19T07:06:56;1.05;;;0.90;;
24801;SDS011;12898;50.520;12.152;2023-11-19T07:09:22;2.23;;;1.00;;
24801;SDS011;12898;50.520;12.152;2023-11-19T07:11:48;1.37;;;0.90;;
24801;SDS011;12898;50.520;12.152;2023-11-19T07:14:17;0.50;;;0.50;;
24801;SDS011;12898;50.520;12.152;2023-11-19T07:16:43;1.67;;;0.70;;
24801;SDS011;12898;50.520;12.152;2023-11-19T07:19:09;0.60;;;0.60;;
24801;SDS011;12898;50.520;12.152;2023-11-19T07:21:35;2.17;;;1.50;;
24801;SDS011;12898;50.520;12.152;2023-11-19T07:24:04;1.73;;;1.08;;
24801;SDS011;12898;50.520;12.152;2023-11-19T07:26:31;1.20;;;1.10;;
24801;SDS011;12898;50.520;12.152;2023-11-19T07:28:57;1.33;;;1.23;;
24801;SDS011;12898;50.520;12.152;2023-11-19T07:31:23;6.43;;;1.23;;
24801;SDS011;12898;50.520;12.152;2023-11-19T07:33:49;1.00;;;0.80;;
24801;SDS011;12898;50.520;12.152;2023-11-19T07:36:15;1.95;;;1.20;;
24801;SDS011;12898;50.520;12.152;2023-11-19T07:38:41;2.35;;;0.80;;
24801;SDS011;12898;50.520;12.152;2023-11-19T07:41:07;1.02;;;0.73;;
24801;SDS011;12898;50.520;12.152;2023-11-19T07:43:38;1.35;;;1.00;;
24801;SDS011;12898;50.520;12.152;2023-11-19T07:46:10;1.40;;;0.80;;
24801;SDS011;12898;50.520;12.152;2023-11-19T07:48:38;13.70;;;1.50;;
24801;SDS011;12898;50.520;12.152;2023-11-19T07:51:05;2.10;;;1.23;;
24801;SDS011;12898;50.520;12.152;2023-11-19T07:53:30;1.27;;;0.70;;
24801;SDS011;12898;50.520;12.152;2023-11-19T07:55:57;1.02;;;0.90;;
24801;SDS011;12898;50.520;12.152;2023-11-19T07:58:24;1.05;;;0.93;;
24801;SDS011;12898;50.520;12.152;2023-11-19T08:00:51;2.40;;;1.10;;
24801;SDS011;12898;50.520;12.152;2023-11-19T08:03:17;1.48;;;0.60;;
24801;SDS011;12898;50.520;12.152;2023-11-19T08:05:44;1.17;;;0.80;;
24801;SDS011;12898;50.520;12.152;2023-11-19T08:08:11;1.55;;;0.95;;
24801;SDS011;12898;50.520;12.152;2023-11-19T08:10:37;2.72;;;1.13;;
24801;SDS011;12898;50.520;12.152;2023-11-19T08:13:03;1.48;;;0.95;;
24801;SDS011;12898;50.520;12.152;2023-11-19T08:15:29;2.60;;;0.88;;
24801;SDS011;12898;50.520;12.152;2023-11-19T08:17:55;1.88;;;0.90;;
24801;SDS011;12898;50.520;12.152;2023-11-19T08:20:21;2.72;;;1.13;;
24801;SDS011;12898;50.520;12.152;2023-11-19T08:22:47;2.60;;;1.30;;
24801;SDS011;12898;50.520;12.152;2023-11-19T08:25:13;3.97;;;1.30;;
24801;SDS011;12898;50.520;12.152;2023-11-19T08:27:39;2.67;;;1.00;;
24801;SDS011;12898;50.520;12.152;2023-11-19T08:30:05;1.77;;;1.05;;
24801;SDS011;12898;50.520;12.152;2023-11-19T08:32:31;1.20;;;1.10;;
24801;SDS011;12898;50.520;12.152;2023-11-19T08:34:57;2.13;;;1.10;;
24801;SDS011;12898;50.520;12.152;2023-11-19T08:37:23;2.67;;;1.30;;
24801;SDS011;12898;50.520;12.152;2023-11-19T08:39:49;1.63;;;1.00;;
24801;SDS011;12898;50.520;12.152;2023-11-19T08:42:16;1.90;;;1.40;;
24801;SDS011;12898;50.520;12.152;2023-11-19T08:44:42;2.33;;;1.60;;
24801;SDS011;12898;50.520;12.152;2023-11-19T08:47:12;3.10;;;1.33;;
24801;SDS011;12898;50.520;12.152;2023-11-19T08:49:39;1.95;;;1.30;;
24801;SDS011;12898;50.520;12.152;2023-11-19T08:52:05;2.45;;;1.20;;
24801;SDS011;12898;50.520;12.152;2023-11-19T08:54:34;2.78;;;1.30;;
24801;SDS011;12898;50.520;12.152;2023-11-19T08:57:02;2.53;;;1.30;;
24801;SDS011;12898;50.520;12.152;2023-11-19T08:59:29;2.55;;;1.17;;
24801;SDS011;12898;50.520;12.152;2023-11-19T09:01:55;1.85;;;1.15;;
24801;SDS011;12898;50.520;12.152;2023-11-19T09:04:21;3.38;;;1.23;;
24801;SDS011;12898;50.520;12.152;2023-11-19T09:06:47;2.55;;;1.10;;
24801;SDS011;12898;50.520;12.152;2023-11-19T09:09:14;1.05;;;0.85;;
24801;SDS011;12898;50.520;12.152;2023-11-19T09:11:40;2.00;;;0.90;;
24801;SDS011;12898;50.520;12.152;2023-11-19T09:14:06;4.25;;;1.50;;
24801;SDS011;12898;50.520;12.152;2023-11-19T09:16:32;2.63;;;1.20;;
24801;SDS011;12898;50.520;12.152;2023-11-19T09:18:58;4.38;;;1.00;;
24801;SDS011;12898;50.520;12.152;2023-11-19T09:21:24;1.67;;;1.10;;
24801;SDS011;12898;50.520;12.152;2023-11-19T09:23:51;1.25;;;0.93;;
24801;SDS011;12898;50.520;12.152;2023-11-19T09:26:19;1.98;;;0.90;;
24801;SDS011;12898;50.520;12.152;2023-11-19T09:28:44;3.80;;;0.80;;
24801;SDS011;12898;50.520;12.152;2023-11-19T09:31:16;2.78;;;1.20;;
24801;SDS011;12898;50.520;12.152;2023-11-19T09:33:43;5.20;;;1.10;;
24801;SDS011;12898;50.520;12.152;2023-11-19T09:36:09;2.00;;;1.23;;
24801;SDS011;12898;50.520;12.152;2023-11-19T09:38:38;3.55;;;1.48;;
24801;SDS011;12898;50.520;12.152;2023-11-19T09:41:05;3.13;;;1.20;;
24801;SDS011;12898;50.520;12.152;2023-11-19T09:43:33;2.67;;;1.10;;
24801;SDS011;12898;50.520;12.152;2023-11-19T09:46:03;2.38;;;1.17;;
24801;SDS011;12898;50.520;12.152;2023-11-19T09:48:34;3.58;;;1.10;;
24801;SDS011;12898;50.520;12.152;2023-11-19T09:51:05;2.92;;;0.85;;
24801;SDS011;12898;50.520;12.152;2023-11-19T09:53:32;5.88;;;1.17;;
24801;SDS011;12898;50.520;12.152;2023-11-19T09:56:05;5.88;;;1.27;;
24801;SDS011;12898;50.520;12.152;2023-11-19T09:58:32;5.15;;;1.08;;
24801;SDS011;12898;50.520;12.152;2023-11-19T10:00:59;3.75;;;0.93;;
24801;SDS011;12898;50.520;12.152;2023-11-19T10:03:26;6.72;;;1.35;;
24801;SDS011;12898;50.520;12.152;2023-11-19T10:05:54;6.13;;;1.60;;
24801;SDS011;12898;50.520;12.152;2023-11-19T10:08:21;7.15;;;1.80;;
24801;SDS011;12898;50.520;12.152;2023-11-19T10:10:47;5.75;;;1.55;;
24801;SDS011;12898;50.520;12.152;2023-11-19T10:13:14;6.20;;;1.40;;
24801;SDS011;12898;50.520;12.152;2023-11-19T10:15:39;6.57;;;1.20;;
24801;SDS011;12898;50.520;12.152;2023-11-19T10:18:06;7.00;;;1.50;;
24801;SDS011;12898;50.520;12.152;2023-11-19T10:20:35;6.88;;;1.77;;
24801;SDS011;12898;50.520;12.152;2023-11-19T10:23:02;7.05;;;1.52;;
24801;SDS011;12898;50.520;12.152;2023-11-19T10:25:28;5.10;;;1.55;;
24801;SDS011;12898;50.520;12.152;2023-11-19T10:27:57;6.57;;;1.55;;
24801;SDS011;12898;50.520;12.152;2023-11-19T10:30:27;5.75;;;1.20;;
24801;SDS011;12898;50.520;12.152;2023-11-19T10:33:04;5.00;;;1.30;;
24801;SDS011;12898;50.520;12.152;2023-11-19T10:35:31;7.47;;;1.45;;
24801;SDS011;12898;50.520;12.152;2023-11-19T10:38:19;5.45;;;1.67;;
24801;SDS011;12898;50.520;12.152;2023-11-19T10:40:47;3.40;;;1.10;;
24801;SDS011;12898;50.520;12.152;2023-11-19T10:43:14;4.25;;;1.30;;
24801;SDS011;12898;50.520;12.152;2023-11-19T10:45:40;4.18;;;1.13;;
24801;SDS011;12898;50.520;12.152;2023-11-19T10:48:06;6.53;;;1.73;;
24801;SDS011;12898;50.520;12.152;2023-11-19T10:50:36;8.02;;;1.48;;
24801;SDS011;12898;50.520;12.152;2023-11-19T10:53:04;9.38;;;1.90;;
24801;SDS011;12898;50.520;12.152;2023-11-19T10:55:40;4.65;;;2.08;;
24801;SDS011;12898;50.520;12.152;2023-11-19T10:58:07;5.95;;;1.45;;
24801;SDS011;12898;50.520;12.152;2023-11-19T11:00:52;4.95;;;1.55;;
24801;SDS011;12898;50.520;12.152;2023-11-19T11:03:21;6.32;;;1.35;;
24801;SDS011;12898;50.520;12.152;2023-11-19T11:05:51;5.28;;;1.48;;
24801;SDS011;12898;50.520;12.152;2023-11-19T11:08:18;4.13;;;1.10;;
24801;SDS011;12898;50.520;12.152;2023-11-19T11:10:48;5.63;;;1.00;;
24801;SDS011;12898;50.520;12.152;2023-11-19T11:13:18;7.15;;;1.75;;
24801;SDS011;12898;50.520;12.152;2023-11-19T11:15:44;5.80;;;1.52;;
24801;SDS011;12898;50.520;12.152;2023-11-19T11:18:12;5.47;;;1.60;;
24801;SDS011;12898;50.520;12.152;2023-11-19T11:20:38;5.15;;;1.73;;
24801;SDS011;12898;50.520;12.152;2023-11-19T11:29:05;6.93;;;1.50;;
24801;SDS011;12898;50.520;12.152;2023-11-19T11:38:10;6.82;;;1.23;;
24801;SDS011;12898;50.520;12.152;2023-11-19T11:40:36;5.38;;;1.15;;
24801;SDS011;12898;50.520;12.152;2023-11-19T11:43:02;6.32;;;1.15;;
24801;SDS011;12898;50.520;12.152;2023-11-19T11:45:36;6.03;;;1.45;;
24801;SDS011;12898;50.520;12.152;2023-11-19T11:48:08;6.13;;;1.30;;
24801;SDS011;12898;50.520;12.152;2023-11-19T11:50:36;9.65;;;1.85;;
24801;SDS011;12898;50.520;12.152;2023-11-19T11:53:21;4.82;;;1.23;;
24801;SDS011;12898;50.520;12.152;2023-11-19T11:58:18;9.90;;;1.77;;
24801;SDS011;12898;50.520;12.152;2023-11-19T12:00:51;5.28;;;1.45;;
24801;SDS011;12898;50.520;12.152;2023-11-19T12:03:19;7.72;;;1.60;;
24801;SDS011;12898;50.520;12.152;2023-11-19T12:05:49;9.65;;;1.83;;
24801;SDS011;12898;50.520;12.152;2023-11-19T12:08:17;13.30;;;2.55;;
24801;SDS011;12898;50.520;12.152;2023-11-19T12:10:49;6.85;;;1.60;;
24801;SDS011;12898;50.520;12.152;2023-11-19T12:13:17;12.18;;;1.90;;
24801;SDS011;12898;50.520;12.152;2023-11-19T12:18:24;6.22;;;1.52;;
24801;SDS011;12898;50.520;12.152;2023-11-19T12:20:53;8.18;;;1.30;;
24801;SDS011;12898;50.520;12.152;2023-11-19T12:23:25;10.63;;;2.45;;
24801;SDS011;12898;50.520;12.152;2023-11-19T12:25:55;10.13;;;1.88;;
24801;SDS011;12898;50.520;12.152;2023-11-19T12:28:22;7.35;;;1.35;;
24801;SDS011;12898;50.520;12.152;2023-11-19T12:30:49;8.20;;;1.52;;
24801;SDS011;12898;50.520;12.152;2023-11-19T12:33:16;8.10;;;1.73;;
24801;SDS011;12898;50.520;12.152;2023-11-19T12:35:43;6.70;;;1.73;;
24801;SDS011;12898;50.520;12.152;2023-11-19T12:38:19;12.32;;;2.10;;
24801;SDS011;12898;50.520;12.152;2023-11-19T12:43:32;9.50;;;3.17;;
24801;SDS011;12898;50.520;12.152;2023-11-19T12:45:59;13.32;;;3.05;;
24801;SDS011;12898;50.520;12.152;2023-11-19T12:48:25;10.95;;;3.47;;
24801;SDS011;12898;50.520;12.152;2023-11-19T12:50:58;10.77;;;2.72;;
24801;SDS011;12898;50.520;12.152;2023-11-19T12:53:27;8.98;;;2.42;;
24801;SDS011;12898;50.520;12.152;2023-11-19T12:55:54;13.45;;;3.95;;
24801;SDS011;12898;50.520;12.152;2023-11-19T13:01:07;11.75;;;2.28;;
24801;SDS011;12898;50.520;12.152;2023-11-19T13:03:38;8.02;;;2.55;;
24801;SDS011;12898;50.520;12.152;2023-11-19T13:06:07;7.50;;;1.90;;
24801;SDS011;12898;50.520;12.152;2023-11-19T13:11:05;8.25;;;2.03;;
24801;SDS011;12898;50.520;12.152;2023-11-19T13:13:33;8.98;;;1.60;;
24801;SDS011;12898;50.520;12.152;2023-11-19T13:16:19;8.73;;;1.42;;
24801;SDS011;12898;50.520;12.152;2023-11-19T13:18:44;6.90;;;1.75;;
24801;SDS011;12898;50.520;12.152;2023-11-19T13:21:10;8.13;;;1.67;;
24801;SDS011;12898;50.520;12.152;2023-11-19T13:23:36;10.57;;;2.17;;
24801;SDS011;12898;50.520;12.152;2023-11-19T13:26:02;10.80;;;2.40;;
24801;SDS011;12898;50.520;12.152;2023-11-19T13:28:28;8.70;;;1.80;;
24801;SDS011;12898;50.520;12.152;2023-11-19T13:30:54;9.38;;;2.10;;
24801;SDS011;12898;50.520;12.152;2023-11-19T13:33:20;9.13;;;2.33;;
24801;SDS011;12898;50.520;12.152;2023-11-19T13:35:46;7.10;;;1.90;;
24801;SDS011;12898;50.520;12.152;2023-11-19T13:38:11;5.95;;;2.10;;
24801;SDS011;12898;50.520;12.152;2023-11-19T13:40:37;4.88;;;1.70;;
24801;SDS011;12898;50.520;12.152;2023-11-19T13:43:04;9.57;;;2.45;;
24801;SDS011;12898;50.520;12.152;2023-11-19T13:45:30;9.93;;;2.28;;
24801;SDS011;12898;50.520;12.152;2023-11-19T13:47:55;8.68;;;2.92;;
24801;SDS011;12898;50.520;12.152;2023-11-19T13:50:21;8.30;;;2.28;;
24801;SDS011;12898;50.520;12.152;2023-11-19T13:52:48;9.85;;;2.25;;
24801;SDS011;12898;50.520;12.152;2023-11-19T13:55:14;7.45;;;1.63;;
24801;SDS011;12898;50.520;12.152;2023-11-19T13:57:41;7.70;;;1.90;;
24801;SDS011;12898;50.520;12.152;2023-11-19T14:00:08;5.82;;;1.80;;
24801;SDS011;12898;50.520;12.152;2023-11-19T14:02:38;8.15;;;2.10;;
24801;SDS011;12898;50.520;12.152;2023-11-19T14:05:05;12.18;;;2.80;;
24801;SDS011;12898;50.520;12.152;2023-11-19T14:07:32;11.63;;;2.47;;
24801;SDS011;12898;50.520;12.152;2023-11-19T14:09:58;8.30;;;2.17;;
24801;SDS011;12898;50.520;12.152;2023-11-19T14:12:24;9.40;;;2.08;;
24801;SDS011;12898;50.520;12.152;2023-11-19T14:14:50;11.57;;;2.75;;
24801;SDS011;12898;50.520;12.152;2023-11-19T14:17:15;10.40;;;2.05;;
24801;SDS011;12898;50.520;12.152;2023-11-19T14:19:42;11.32;;;2.53;;
24801;SDS011;12898;50.520;12.152;2023-11-19T14:22:08;10.45;;;2.00;;
24801;SDS011;12898;50.520;12.152;2023-11-19T14:24:34;8.70;;;1.95;;
24801;SDS011;12898;50.520;12.152;2023-11-19T14:27:00;9.40;;;1.95;;
24801;SDS011;12898;50.520;12.152;2023-11-19T14:29:26;8.40;;;1.90;;
24801;SDS011;12898;50.520;12.152;2023-11-19T14:31:54;6.72;;;1.65;;
24801;SDS011;12898;50.520;12.152;2023-11-19T14:34:20;10.02;;;2.50;;
24801;SDS011;12898;50.520;12.152;2023-11-19T14:36:47;13.50;;;3.08;;
24801;SDS011;12898;50.520;12.152;2023-11-19T14:39:13;9.93;;;3.45;;
24801;SDS011;12898;50.520;12.152;2023-11-19T14:41:39;16.00;;;4.78;;
24801;SDS011;12898;50.520;12.152;2023-11-19T14:44:05;11.02;;;2.60;;
24801;SDS011;12898;50.520;12.152;2023-11-19T14:46:31;11.15;;;2.60;;
24801;SDS011;12898;50.520;12.152;2023-11-19T14:48:56;14.27;;;3.53;;
24801;SDS011;12898;50.520;12.152;2023-11-19T14:51:22;9.38;;;2.40;;
24801;SDS011;12898;50.520;12.152;2023-11-19T14:53:48;15.63;;;2.80;;
24801;SDS011;12898;50.520;12.152;2023-11-19T14:56:14;11.48;;;3.25;;
24801;SDS011;12898;50.520;12.152;2023-11-19T14:58:39;9.98;;;2.97;;